createdAt,value
2023-08-14T00:00:57.675Z,13.30
2023-08-14T00:03:24.978Z,12.65
2023-08-14T00:05:52.481Z,14.10
2023-08-14T00:08:20.357Z,14.18
2023-08-14T00:10:47.632Z,14.02
2023-08-14T00:13:14.708Z,14.15
2023-08-14T00:15:41.903Z,13.05
2023-08-14T00:18:09.156Z,12.70
2023-08-14T00:20:36.249Z,12.25
2023-08-14T00:23:03.548Z,12.02
2023-08-14T00:25:30.967Z,12.52
2023-08-14T00:27:58.192Z,12.32
2023-08-14T00:30:25.249Z,11.50
2023-08-14T00:32:52.448Z,12.93
2023-08-14T00:35:20.369Z,11.88
2023-08-14T00:37:49.769Z,11.77
2023-08-14T00:40:18.304Z,11.77
2023-08-14T00:42:47.488Z,11.75
2023-08-14T00:45:14.691Z,11.55
2023-08-14T00:47:45.436Z,12.65
2023-08-14T00:50:13.301Z,12.52
2023-08-14T00:52:44.313Z,12.45
2023-08-14T00:55:18.458Z,12.15
2023-08-14T00:57:46.235Z,12.07
2023-08-14T01:00:14.726Z,12.85
2023-08-14T01:02:43.642Z,11.50
2023-08-14T01:05:11.232Z,13.07
2023-08-14T01:07:39.048Z,13.27
2023-08-14T01:10:09.025Z,11.75
2023-08-14T01:12:59.748Z,12.45
2023-08-14T01:15:33.319Z,11.02
2023-08-14T01:18:02.867Z,12.40
2023-08-14T01:20:33.511Z,12.65
2023-08-14T01:23:07.833Z,11.50
2023-08-14T01:25:38.660Z,11.85
2023-08-14T01:28:07.079Z,12.63
2023-08-14T01:30:34.290Z,12.73
2023-08-14T01:33:01.717Z,11.40
2023-08-14T01:35:53.707Z,11.93
2023-08-14T01:38:32.827Z,11.18
2023-08-14T01:41:23.711Z,11.35
2023-08-14T01:43:56.432Z,11.60
2023-08-14T01:46:25.662Z,11.80
2023-08-14T01:48:56.053Z,11.90
2023-08-14T01:51:24.655Z,11.70
2023-08-14T01:53:51.786Z,13.27
2023-08-14T01:56:18.908Z,12.77
2023-08-14T01:58:46.020Z,12.98
2023-08-14T02:01:13.208Z,12.25
2023-08-14T02:03:40.408Z,10.98
2023-08-14T02:06:07.717Z,11.38
2023-08-14T02:08:34.853Z,11.65
2023-08-14T02:11:07.996Z,12.93
2023-08-14T02:13:35.600Z,11.60
2023-08-14T02:16:04.403Z,12.75
2023-08-14T02:18:32.064Z,12.70
2023-08-14T02:20:59.255Z,12.30
2023-08-14T02:23:26.429Z,12.32
2023-08-14T02:25:56.263Z,12.35
2023-08-14T02:28:23.506Z,13.10
2023-08-14T02:30:50.631Z,12.98
2023-08-14T02:33:18.928Z,13.93
2023-08-14T02:35:46.700Z,13.25
2023-08-14T02:38:16.418Z,13.35
2023-08-14T02:40:44.801Z,12.30
2023-08-14T02:43:11.918Z,13.10
2023-08-14T02:45:39.604Z,12.55
2023-08-14T02:48:06.935Z,12.57
2023-08-14T02:50:34.146Z,12.65
2023-08-14T02:53:01.329Z,11.27
2023-08-14T02:55:28.687Z,11.73
2023-08-14T02:57:55.899Z,11.75
2023-08-14T03:00:23.123Z,11.65
2023-08-14T03:02:50.505Z,10.95
2023-08-14T03:05:18.035Z,11.60
2023-08-14T03:07:45.214Z,11.23
2023-08-14T03:10:12.308Z,12.38
2023-08-14T03:12:39.555Z,13.02
2023-08-14T03:15:07.665Z,12.63
2023-08-14T03:17:34.750Z,13.20
2023-08-14T03:20:02.049Z,12.18
2023-08-14T03:22:29.508Z,12.38
2023-08-14T03:24:56.790Z,12.05
2023-08-14T03:27:24.013Z,12.68
2023-08-14T03:29:51.350Z,12.98
2023-08-14T03:32:19.000Z,13.02
2023-08-14T03:34:46.766Z,11.60
2023-08-14T03:37:13.921Z,12.15
2023-08-14T03:39:41.287Z,11.82
2023-08-14T03:42:09.370Z,11.40
2023-08-14T03:44:36.602Z,11.13
2023-08-14T03:47:03.821Z,10.50
2023-08-14T03:49:31.017Z,11.40
2023-08-14T03:51:58.272Z,10.52
2023-08-14T03:54:25.390Z,10.43
2023-08-14T03:56:52.871Z,9.98
2023-08-14T03:59:20.014Z,11.02
2023-08-14T04:01:47.132Z,11.07
2023-08-14T04:04:14.408Z,11.50
2023-08-14T04:06:41.748Z,10.52
2023-08-14T04:09:10.411Z,11.32
2023-08-14T04:11:37.618Z,10.25
2023-08-14T04:14:04.866Z,10.88
2023-08-14T04:16:47.596Z,10.40
2023-08-14T04:19:16.668Z,10.95
2023-08-14T04:21:44.397Z,10.80
2023-08-14T04:24:11.855Z,11.30
2023-08-14T04:26:39.915Z,10.65
2023-08-14T04:29:09.283Z,11.65
2023-08-14T04:31:39.097Z,11.43
2023-08-14T04:34:06.822Z,12.00
2023-08-14T04:36:36.360Z,12.35
2023-08-14T04:39:05.631Z,11.85
2023-08-14T04:41:32.886Z,10.70
2023-08-14T04:44:01.424Z,11.18
2023-08-14T04:46:53.305Z,11.30
2023-08-14T04:49:26.385Z,10.70
2023-08-14T04:51:53.494Z,10.60
2023-08-14T04:54:20.805Z,10.85
2023-08-14T04:56:47.975Z,10.73
2023-08-14T04:59:16.384Z,11.55
2023-08-14T05:01:44.329Z,11.90
2023-08-14T05:04:13.177Z,12.15
2023-08-14T05:06:40.380Z,12.48
2023-08-14T05:09:24.257Z,11.82
2023-08-14T05:11:55.438Z,10.93
2023-08-14T05:14:22.681Z,10.23
2023-08-14T05:16:49.940Z,10.27
2023-08-14T05:19:17.421Z,10.20
2023-08-14T05:21:46.371Z,9.63
2023-08-14T05:24:15.500Z,9.65
2023-08-14T05:26:42.939Z,10.27
2023-08-14T05:29:10.076Z,9.38
2023-08-14T05:31:37.312Z,10.30
2023-08-14T05:34:04.636Z,10.02
2023-08-14T05:36:31.823Z,10.48
2023-08-14T05:38:59.016Z,9.95
2023-08-14T05:41:26.165Z,10.27
2023-08-14T05:43:53.332Z,9.30
2023-08-14T05:46:23.448Z,9.77
2023-08-14T05:48:50.648Z,8.90
2023-08-14T05:51:17.794Z,9.18
2023-08-14T05:53:44.953Z,8.88
2023-08-14T05:56:12.151Z,9.43
2023-08-14T05:58:39.368Z,9.70
2023-08-14T06:01:06.482Z,9.23
2023-08-14T06:03:44.270Z,8.73
2023-08-14T06:06:12.918Z,7.50
2023-08-14T06:08:40.102Z,5.93
2023-08-14T06:11:07.251Z,5.32
2023-08-14T06:13:34.434Z,5.45
2023-08-14T06:16:01.742Z,5.70
2023-08-14T06:18:28.841Z,5.05
2023-08-14T06:20:56.105Z,4.93
2023-08-14T06:23:23.213Z,4.57
2023-08-14T06:25:50.478Z,4.38
2023-08-14T06:28:17.586Z,4.78
2023-08-14T06:30:44.901Z,5.10
2023-08-14T06:33:12.594Z,4.70
2023-08-14T06:35:41.097Z,4.97
2023-08-14T06:38:08.228Z,5.10
2023-08-14T06:40:35.354Z,5.75
2023-08-14T06:43:04.292Z,5.30
2023-08-14T06:45:31.509Z,5.82
2023-08-14T06:47:58.824Z,5.75
2023-08-14T06:50:25.968Z,5.75
2023-08-14T06:52:53.926Z,6.20
2023-08-14T06:55:22.121Z,6.38
2023-08-14T06:57:49.452Z,7.53
2023-08-14T07:00:16.988Z,6.35
2023-08-14T07:02:46.887Z,7.35
2023-08-14T07:05:14.513Z,7.97
2023-08-14T07:07:41.847Z,7.68
2023-08-14T07:10:09.427Z,6.25
2023-08-14T07:12:36.514Z,7.10
2023-08-14T07:15:06.226Z,9.20
2023-08-14T07:17:33.885Z,7.35
2023-08-14T07:20:01.280Z,8.45
2023-08-14T07:22:28.430Z,7.90
2023-08-14T07:24:55.575Z,8.20
2023-08-14T07:27:24.446Z,7.72
2023-08-14T07:29:51.765Z,7.20
2023-08-14T07:32:19.064Z,8.85
2023-08-14T07:34:46.563Z,8.13
2023-08-14T07:37:13.768Z,6.70
2023-08-14T07:39:40.950Z,6.32
2023-08-14T07:42:08.110Z,6.80
2023-08-14T07:44:35.270Z,6.90
2023-08-14T07:47:02.370Z,6.70
2023-08-14T07:49:29.581Z,6.15
2023-08-14T07:51:56.857Z,6.80
2023-08-14T07:54:23.955Z,6.03
2023-08-14T07:56:53.571Z,7.20
2023-08-14T07:59:20.756Z,6.13
2023-08-14T08:01:47.910Z,6.35
2023-08-14T08:04:26.568Z,6.70
2023-08-14T08:06:54.102Z,8.02
2023-08-14T08:09:21.233Z,6.20
2023-08-14T08:11:50.284Z,7.45
2023-08-14T08:14:17.891Z,7.30
2023-08-14T08:16:46.031Z,7.32
2023-08-14T08:19:13.323Z,7.60
2023-08-14T08:21:40.901Z,7.07
2023-08-14T08:24:09.261Z,7.38
2023-08-14T08:26:37.203Z,6.80
2023-08-14T08:29:06.834Z,6.03
2023-08-14T08:31:34.391Z,7.43
2023-08-14T08:34:01.497Z,6.53
2023-08-14T08:36:28.731Z,6.72
2023-08-14T08:38:55.794Z,6.90
2023-08-14T08:41:26.840Z,6.55
2023-08-14T08:44:04.295Z,6.68
2023-08-14T08:46:36.732Z,6.65
2023-08-14T08:49:05.364Z,7.30
2023-08-14T08:51:34.141Z,6.72
2023-08-14T08:54:02.764Z,7.97
2023-08-14T08:56:30.339Z,6.93
2023-08-14T08:58:58.176Z,8.23
2023-08-14T09:01:25.327Z,8.15
2023-08-14T09:03:52.706Z,8.18
2023-08-14T09:06:19.995Z,7.75
2023-08-14T09:08:47.065Z,7.05
2023-08-14T09:11:14.244Z,7.15
2023-08-14T09:13:41.849Z,7.40
2023-08-14T09:16:09.762Z,7.00
2023-08-14T09:18:36.918Z,6.85
2023-08-14T09:21:04.632Z,6.40
2023-08-14T09:23:33.569Z,6.50
2023-08-14T09:26:00.923Z,6.43
2023-08-14T09:28:28.466Z,5.97
2023-08-14T09:31:06.974Z,5.32
2023-08-14T09:33:34.510Z,5.80
2023-08-14T09:36:01.716Z,5.53
2023-08-14T09:38:28.968Z,5.30
2023-08-14T09:40:59.059Z,4.50
2023-08-14T09:43:27.194Z,5.80
2023-08-14T09:45:55.278Z,5.13
2023-08-14T09:48:24.022Z,4.60
2023-08-14T09:50:52.783Z,4.15
2023-08-14T09:53:20.172Z,4.50
2023-08-14T09:55:47.499Z,4.03
2023-08-14T09:58:14.675Z,4.25
2023-08-14T10:00:42.201Z,4.05
2023-08-14T10:03:10.630Z,4.07
2023-08-14T10:05:39.120Z,3.75
2023-08-14T10:08:09.980Z,4.10
2023-08-14T10:10:40.098Z,4.40
2023-08-14T10:13:09.942Z,4.40
2023-08-14T10:15:42.940Z,4.40
2023-08-14T10:18:16.628Z,4.23
2023-08-14T10:20:49.279Z,4.20
2023-08-14T10:23:17.733Z,4.22
2023-08-14T10:25:48.793Z,4.38
2023-08-14T10:28:16.574Z,3.90
2023-08-14T10:30:44.281Z,4.10
2023-08-14T10:33:12.943Z,4.25
2023-08-14T10:35:57.093Z,4.40
2023-08-14T10:41:08.458Z,4.00
2023-08-14T10:43:35.778Z,4.45
2023-08-14T10:46:19.235Z,4.22
2023-08-14T10:48:50.060Z,4.22
2023-08-14T10:51:22.364Z,4.43
2023-08-14T10:53:49.531Z,4.10
2023-08-14T10:56:17.126Z,4.10
2023-08-14T10:58:48.828Z,4.22
2023-08-14T11:01:18.247Z,4.25
2023-08-14T11:04:06.306Z,4.20
2023-08-14T11:07:12.721Z,4.07
2023-08-14T11:09:41.178Z,4.65
2023-08-14T11:12:10.740Z,4.20
2023-08-14T11:14:40.545Z,3.70
2023-08-14T11:17:09.477Z,3.53
2023-08-14T11:19:38.599Z,4.13
2023-08-14T11:22:06.290Z,3.70
2023-08-14T11:24:33.982Z,3.97
2023-08-14T11:27:02.193Z,3.45
2023-08-14T11:29:31.759Z,4.70
2023-08-14T11:32:01.627Z,4.38
2023-08-14T11:34:29.670Z,4.30
2023-08-14T11:39:30.338Z,4.10
2023-08-14T11:41:57.795Z,4.47
2023-08-14T11:44:24.885Z,4.55
2023-08-14T11:46:52.159Z,4.25
2023-08-14T11:49:19.378Z,3.97
2023-08-14T11:51:47.367Z,4.43
2023-08-14T11:54:15.483Z,4.68
2023-08-14T11:56:42.678Z,4.53
2023-08-14T11:59:09.966Z,4.50
2023-08-14T12:01:39.072Z,4.57
2023-08-14T12:04:08.159Z,4.60
2023-08-14T12:06:36.125Z,4.28
2023-08-14T12:09:06.950Z,4.13
2023-08-14T12:11:34.165Z,4.20
2023-08-14T12:14:06.058Z,4.30
2023-08-14T12:16:33.551Z,4.38
2023-08-14T12:19:04.355Z,4.53
2023-08-14T12:21:31.789Z,4.93
2023-08-14T12:23:58.850Z,4.45
2023-08-14T12:26:27.343Z,4.78
2023-08-14T12:28:54.482Z,4.15
2023-08-14T12:31:21.787Z,4.72
2023-08-14T12:33:53.526Z,4.78
2023-08-14T12:36:23.848Z,4.47
2023-08-14T12:38:51.116Z,4.97
2023-08-14T12:41:18.341Z,5.18
2023-08-14T12:43:45.577Z,4.78
2023-08-14T12:46:12.930Z,4.70
2023-08-14T12:48:40.231Z,4.53
2023-08-14T12:53:35.410Z,4.88
2023-08-14T12:56:04.115Z,5.07
2023-08-14T12:58:32.257Z,5.00
2023-08-14T13:01:04.938Z,5.22
2023-08-14T13:03:37.084Z,5.47
2023-08-14T13:06:08.318Z,5.10
2023-08-14T13:08:35.490Z,5.57
2023-08-14T13:11:02.628Z,5.30
2023-08-14T13:13:30.802Z,5.10
2023-08-14T13:15:58.029Z,4.88
2023-08-14T13:18:25.300Z,5.68
2023-08-14T13:20:52.492Z,5.47
2023-08-14T13:23:19.989Z,5.18
2023-08-14T13:25:47.556Z,5.43
2023-08-14T13:28:14.821Z,5.43
2023-08-14T13:30:44.357Z,5.50
2023-08-14T13:33:13.306Z,5.13
2023-08-14T13:35:40.449Z,5.50
2023-08-14T13:38:07.606Z,5.95
2023-08-14T13:40:35.014Z,5.35
2023-08-14T13:43:02.465Z,4.60
2023-08-14T13:45:30.783Z,5.13
2023-08-14T13:47:59.092Z,5.30
2023-08-14T13:50:33.314Z,5.20
2023-08-14T13:53:02.904Z,5.28
2023-08-14T13:55:31.836Z,4.95
2023-08-14T13:58:00.175Z,4.68
2023-08-14T14:00:30.299Z,5.22
2023-08-14T14:02:59.398Z,5.60
2023-08-14T14:05:28.076Z,4.90
2023-08-14T14:07:57.505Z,5.03
2023-08-14T14:10:26.072Z,5.13
2023-08-14T14:15:23.680Z,5.20
2023-08-14T14:17:51.164Z,4.90
2023-08-14T14:20:18.358Z,5.15
2023-08-14T14:22:45.528Z,5.45
2023-08-14T14:25:14.070Z,5.13
2023-08-14T14:27:41.425Z,5.07
2023-08-14T14:30:09.174Z,5.65
2023-08-14T14:32:36.806Z,5.30
2023-08-14T14:35:04.542Z,4.93
2023-08-14T14:37:31.945Z,5.03
2023-08-14T14:39:59.214Z,4.97
2023-08-14T14:42:26.553Z,5.30
2023-08-14T14:44:55.462Z,4.82
2023-08-14T14:47:24.503Z,5.03
2023-08-14T14:49:52.478Z,4.97
2023-08-14T14:52:20.087Z,4.85
2023-08-14T14:54:47.274Z,4.70
2023-08-14T14:57:14.490Z,4.82
2023-08-14T14:59:42.779Z,4.18
2023-08-14T15:02:23.588Z,4.60
2023-08-14T15:04:56.928Z,4.65
2023-08-14T15:07:24.011Z,4.32
2023-08-14T15:09:51.516Z,4.60
2023-08-14T15:12:18.619Z,4.25
2023-08-14T15:14:46.312Z,4.53
2023-08-14T15:17:13.453Z,4.22
2023-08-14T15:19:41.856Z,4.45
2023-08-14T15:22:09.126Z,4.25
2023-08-14T15:24:37.067Z,4.15
2023-08-14T15:27:04.364Z,4.15
2023-08-14T15:29:31.556Z,4.75
2023-08-14T15:31:58.685Z,5.15
2023-08-14T15:34:25.921Z,4.80
2023-08-14T15:36:53.621Z,4.88
2023-08-14T15:39:21.194Z,5.03
2023-08-14T15:41:48.264Z,4.07
2023-08-14T15:44:15.654Z,4.40
2023-08-14T15:46:42.786Z,4.57
2023-08-14T15:49:10.109Z,4.10
2023-08-14T15:51:37.493Z,4.70
2023-08-14T15:54:04.951Z,3.90
2023-08-14T15:56:32.114Z,4.82
2023-08-14T15:58:59.355Z,4.53
2023-08-14T16:01:26.905Z,4.65
2023-08-14T16:03:54.132Z,4.55
2023-08-14T16:06:22.405Z,4.20
2023-08-14T16:08:49.990Z,4.00
2023-08-14T16:11:17.290Z,4.10
2023-08-14T16:13:44.623Z,4.20
2023-08-14T16:16:11.822Z,4.25
2023-08-14T16:18:38.958Z,4.30
2023-08-14T16:21:07.799Z,4.57
2023-08-14T16:23:35.194Z,4.32
2023-08-14T16:26:02.351Z,4.40
2023-08-14T16:28:29.567Z,4.50
2023-08-14T16:30:56.781Z,4.28
2023-08-14T16:33:24.112Z,4.70
2023-08-14T16:35:53.149Z,4.90
2023-08-14T16:38:20.586Z,4.35
2023-08-14T16:40:47.932Z,4.32
2023-08-14T16:43:15.414Z,4.70
2023-08-14T16:45:48.305Z,4.30
2023-08-14T16:48:17.372Z,4.40
2023-08-14T16:50:45.272Z,4.60
2023-08-14T16:53:12.631Z,4.45
2023-08-14T16:55:39.962Z,4.50
2023-08-14T16:58:07.064Z,4.57
2023-08-14T17:00:34.282Z,4.65
2023-08-14T17:03:03.757Z,4.60
2023-08-14T17:05:32.992Z,4.72
2023-08-14T17:08:00.399Z,4.88
2023-08-14T17:10:27.507Z,4.75
2023-08-14T17:12:54.607Z,4.93
2023-08-14T17:15:21.985Z,5.25
2023-08-14T17:17:49.757Z,5.22
2023-08-14T17:20:17.130Z,4.70
2023-08-14T17:22:44.499Z,5.00
2023-08-14T17:25:12.244Z,5.10
2023-08-14T17:27:39.581Z,5.82
2023-08-14T17:30:07.605Z,5.50
2023-08-14T17:32:35.030Z,6.53
2023-08-14T17:35:02.339Z,6.07
2023-08-14T17:37:29.447Z,5.80
2023-08-14T17:39:56.631Z,5.90
2023-08-14T17:42:23.994Z,6.65
2023-08-14T17:44:51.366Z,5.88
2023-08-14T17:47:18.974Z,5.63
2023-08-14T17:49:46.879Z,5.72
2023-08-14T17:52:14.008Z,5.68
2023-08-14T17:54:42.007Z,6.10
2023-08-14T17:57:09.092Z,5.72
2023-08-14T17:59:37.195Z,6.18
2023-08-14T18:02:04.597Z,5.88
2023-08-14T18:04:31.976Z,5.78
2023-08-14T18:07:00.011Z,5.95
2023-08-14T18:09:27.647Z,6.90
2023-08-14T18:11:55.228Z,6.65
2023-08-14T18:14:23.105Z,6.25
2023-08-14T18:16:50.481Z,6.47
2023-08-14T18:21:48.081Z,6.50
2023-08-14T18:24:15.295Z,6.78
2023-08-14T18:26:42.411Z,6.88
2023-08-14T18:29:09.528Z,7.47
2023-08-14T18:31:37.471Z,6.78
2023-08-14T18:34:04.964Z,6.97
2023-08-14T18:36:34.623Z,6.80
2023-08-14T18:39:02.033Z,7.80
2023-08-14T18:41:29.449Z,7.47
2023-08-14T18:43:57.039Z,7.65
2023-08-14T18:46:24.269Z,7.60
2023-08-14T18:48:51.402Z,8.43
2023-08-14T18:51:18.521Z,8.48
2023-08-14T18:53:45.989Z,8.27
2023-08-14T18:56:13.650Z,8.15
2023-08-14T18:58:41.065Z,8.50
2023-08-14T19:01:08.172Z,8.30
2023-08-14T19:03:35.403Z,8.15
2023-08-14T19:06:03.328Z,8.13
2023-08-14T19:08:30.512Z,8.00
2023-08-14T19:10:57.877Z,8.80
2023-08-14T19:13:25.106Z,8.18
2023-08-14T19:15:52.600Z,8.85
2023-08-14T19:18:19.768Z,9.75
2023-08-14T19:20:46.962Z,8.75
2023-08-14T19:23:14.269Z,8.43
2023-08-14T19:25:41.580Z,8.27
2023-08-14T19:28:21.022Z,8.90
2023-08-14T19:30:50.638Z,8.20
2023-08-14T19:33:17.894Z,9.63
2023-08-14T19:35:45.305Z,8.68
2023-08-14T19:38:12.623Z,8.30
2023-08-14T19:40:39.879Z,9.38
2023-08-14T19:43:07.775Z,8.77
2023-08-14T19:45:36.767Z,8.98
2023-08-14T19:48:04.984Z,9.27
2023-08-14T19:50:33.945Z,8.80
2023-08-14T19:53:01.700Z,9.32
2023-08-14T19:55:29.494Z,9.15
2023-08-14T19:57:56.761Z,9.32
2023-08-14T20:00:24.231Z,9.38
2023-08-14T20:02:54.011Z,9.10
2023-08-14T20:05:21.447Z,9.52
2023-08-14T20:07:48.696Z,9.30
2023-08-14T20:10:17.331Z,9.20
2023-08-14T20:12:44.702Z,9.63
2023-08-14T20:15:11.878Z,10.30
2023-08-14T20:17:39.137Z,9.35
2023-08-14T20:20:08.093Z,9.25
2023-08-14T20:22:35.234Z,9.57
2023-08-14T20:25:02.775Z,9.43
2023-08-14T20:27:29.851Z,9.07
2023-08-14T20:29:57.104Z,9.90
2023-08-14T20:32:24.153Z,10.00
2023-08-14T20:34:51.286Z,9.55
2023-08-14T20:37:18.672Z,9.73
2023-08-14T20:39:47.351Z,9.30
2023-08-14T20:42:14.443Z,9.55
2023-08-14T20:44:41.669Z,9.10
2023-08-14T20:47:09.317Z,9.13
2023-08-14T20:49:36.457Z,10.20
2023-08-14T20:52:04.246Z,9.68
2023-08-14T20:54:31.684Z,9.52
2023-08-14T20:56:59.640Z,8.93
2023-08-14T20:59:26.845Z,8.38
2023-08-14T21:01:55.692Z,9.68
2023-08-14T21:04:23.281Z,9.65
2023-08-14T21:06:50.327Z,10.52
2023-08-14T21:09:17.908Z,10.45
2023-08-14T21:11:45.008Z,10.30
2023-08-14T21:14:12.408Z,9.88
2023-08-14T21:16:40.352Z,10.98
2023-08-14T21:19:08.089Z,9.95
2023-08-14T21:21:35.242Z,10.48
2023-08-14T21:24:02.456Z,9.93
2023-08-14T21:26:31.231Z,10.02
2023-08-14T21:28:58.674Z,9.27
2023-08-14T21:31:25.932Z,8.77
2023-08-14T21:33:53.121Z,9.00
2023-08-14T21:36:20.225Z,10.10
2023-08-14T21:38:47.326Z,9.82
2023-08-14T21:41:14.501Z,10.15
2023-08-14T21:43:43.010Z,10.05
2023-08-14T21:46:10.288Z,10.98
2023-08-14T21:48:37.462Z,11.48
2023-08-14T21:51:04.929Z,10.27
2023-08-14T21:53:32.248Z,11.07
2023-08-14T21:55:59.284Z,10.70
2023-08-14T21:58:26.382Z,9.75
2023-08-14T22:00:53.986Z,10.63
2023-08-14T22:03:21.130Z,10.65
2023-08-14T22:05:48.700Z,10.18
2023-08-14T22:08:15.759Z,9.75
2023-08-14T22:10:43.134Z,10.35
2023-08-14T22:13:10.215Z,10.50
2023-08-14T22:15:46.154Z,10.65
2023-08-14T22:18:15.256Z,11.60
2023-08-14T22:20:43.762Z,12.15
2023-08-14T22:23:13.886Z,11.85
2023-08-14T22:25:43.647Z,11.80
2023-08-14T22:28:10.891Z,10.55
2023-08-14T22:30:38.208Z,11.43
2023-08-14T22:33:05.748Z,10.90
2023-08-14T22:35:32.897Z,10.60
2023-08-14T22:38:00.069Z,10.90
2023-08-14T22:40:27.225Z,11.52
2023-08-14T22:42:56.062Z,10.23
2023-08-14T22:45:25.391Z,10.68
2023-08-14T22:47:52.721Z,10.40
2023-08-14T22:50:20.035Z,11.38
2023-08-14T22:52:47.058Z,10.68
2023-08-14T22:55:14.555Z,10.60
2023-08-14T22:57:41.602Z,11.15
2023-08-14T23:00:10.515Z,11.00
2023-08-14T23:02:39.667Z,11.13
2023-08-14T23:05:08.459Z,11.10
2023-08-14T23:07:36.281Z,10.25
2023-08-14T23:10:03.482Z,10.93
2023-08-14T23:12:30.618Z,12.02
2023-08-14T23:14:57.870Z,13.00
2023-08-14T23:17:25.705Z,13.05
2023-08-14T23:19:53.419Z,11.68
2023-08-14T23:22:23.023Z,10.05
2023-08-14T23:24:50.319Z,10.95
2023-08-14T23:27:17.608Z,11.10
2023-08-14T23:29:45.040Z,12.55
2023-08-14T23:32:12.147Z,12.77
2023-08-14T23:34:40.739Z,11.82
2023-08-14T23:37:08.304Z,11.57
2023-08-14T23:39:35.670Z,11.55
2023-08-14T23:42:02.912Z,11.32
2023-08-14T23:44:30.396Z,12.18
2023-08-14T23:46:57.750Z,11.25
2023-08-14T23:49:25.331Z,11.80
2023-08-14T23:51:52.386Z,11.43
2023-08-14T23:54:20.110Z,11.70
2023-08-14T23:56:47.434Z,11.60
2023-08-14T23:59:14.798Z,12.25
